CheckWX is a tool to help pilots better visualize weather data.  It is not intended as a substitute for an official pre-flight weather briefing.

09:21:13 UTC

KHYA METAR
Barnstable Municipal-Boardman / Polando Field Airport
Hyannis, Massachusetts, USA
Current

25 mins ago

KHYA 070856Z AUTO 33009G21KT 10SM BKN024 OVC030 02/M04 A3011 RMK AO2 SLP198 T00171039 50010
Observed
Dec-7 @ 08:56 UTC
Wind
  • 330° at 9 KTS
  • Gusting to 21 KTS
Visibility
10 SM
Flight Rules
MVFR
Cloud Levels
  • Broken at 2,400' AGL
  • Overcast at 3,000' AGL
Temperature
C / 36°F
Dewpoint
-4°C / 25°F
Humidity
65%
Altimeter
30.11" Hg
Pressure
1019.62 hPa
Previous

1 hour ago

KHYA 070813Z AUTO 33010G21KT 10SM BKN029 02/M04 A3009 RMK AO2 T00171039
Observed
Dec-7 @ 08:13 UTC
Wind
  • 330° at 10 KTS
  • Gusting to 21 KTS
Visibility
10 SM
Flight Rules
MVFR
Cloud Levels
  • Broken at 2,900' AGL
Temperature
C / 36°F
Dewpoint
-4°C / 25°F
Humidity
65%
Altimeter
30.09" Hg
Pressure
1018.92 hPa
Previous

2 hours ago

KHYA 070751Z AUTO 33013G20KT 10SM SCT025 01/M04 A3008 RMK AO2
Observed
Dec-7 @ 07:51 UTC
Wind
  • 330° at 13 KTS
  • Gusting to 20 KTS
Visibility
10 SM
Flight Rules
VFR
Cloud Levels
  • Scattered at 2,500' AGL
Temperature
C / 34°F
Dewpoint
-4°C / 25°F
Humidity
70%
Altimeter
30.08" Hg
Pressure
1018.62 hPa